createdAt,value
2022-10-05T00:01:46.820Z,16.06
2022-10-05T00:04:52.621Z,16.10
2022-10-05T00:07:56.983Z,16.12
2022-10-05T00:10:59.811Z,16.21
2022-10-05T00:14:07.358Z,16.24
2022-10-05T00:17:13.827Z,16.18
2022-10-05T00:20:22.561Z,16.18
2022-10-05T00:23:27.651Z,16.22
2022-10-05T00:26:32.915Z,16.30
2022-10-05T00:29:35.490Z,16.36
2022-10-05T00:32:38.306Z,16.33
2022-10-05T00:35:41.211Z,16.40
2022-10-05T00:38:44.258Z,16.43
2022-10-05T00:41:55.283Z,16.46
2022-10-05T00:45:01.929Z,16.52
2022-10-05T00:48:12.526Z,16.59
2022-10-05T00:51:20.967Z,16.27
2022-10-05T00:54:29.437Z,14.88
2022-10-05T00:57:37.583Z,13.65
2022-10-05T01:00:43.834Z,12.75
2022-10-05T01:03:50.836Z,12.03
2022-10-05T01:06:59.570Z,11.55
2022-10-05T01:10:06.030Z,12.38
2022-10-05T01:13:15.106Z,13.55
2022-10-05T01:16:22.067Z,14.28
2022-10-05T01:19:39.371Z,14.74
2022-10-05T01:22:51.825Z,15.12
2022-10-05T01:26:03.521Z,15.41
2022-10-05T01:29:08.778Z,15.63
2022-10-05T01:32:14.873Z,15.82
2022-10-05T01:35:23.983Z,16.02
2022-10-05T01:38:33.882Z,16.19
2022-10-05T01:41:40.787Z,16.31
2022-10-05T01:44:47.380Z,16.46
2022-10-05T01:47:53.340Z,16.59
2022-10-05T01:51:00.797Z,16.04
2022-10-05T01:54:10.005Z,14.62
2022-10-05T01:57:15.944Z,13.43
2022-10-05T02:00:19.485Z,12.54
2022-10-05T02:03:24.963Z,11.91
2022-10-05T02:06:30.255Z,12.57
2022-10-05T02:09:34.405Z,13.64
2022-10-05T02:12:41.039Z,14.32
2022-10-05T02:15:45.557Z,14.66
2022-10-05T02:18:50.472Z,15.02
2022-10-05T02:21:55.392Z,15.30
2022-10-05T02:25:02.864Z,15.48
2022-10-05T02:28:09.655Z,15.74
2022-10-05T02:31:15.070Z,15.88
2022-10-05T02:34:22.556Z,16.03
2022-10-05T02:37:28.793Z,16.11
2022-10-05T02:40:37.814Z,16.28
2022-10-05T02:43:45.781Z,16.38
2022-10-05T02:46:57.156Z,16.47
2022-10-05T02:50:06.872Z,16.54
2022-10-05T02:53:17.583Z,16.28
2022-10-05T02:56:26.372Z,14.94
2022-10-05T02:59:33.682Z,13.62
2022-10-05T03:02:41.963Z,12.70
2022-10-05T03:05:48.059Z,13.10
2022-10-05T03:08:57.638Z,14.08
2022-10-05T03:12:07.549Z,14.69
2022-10-05T03:15:15.977Z,15.07
2022-10-05T03:18:28.545Z,15.38
2022-10-05T03:21:39.688Z,15.59
2022-10-05T03:24:52.107Z,15.71
2022-10-05T03:27:58.468Z,15.76
2022-10-05T03:31:03.365Z,15.82
2022-10-05T03:34:10.582Z,15.92
2022-10-05T03:37:16.462Z,15.77
2022-10-05T03:40:24.900Z,14.53
2022-10-05T03:43:41.445Z,13.26
2022-10-05T03:46:53.445Z,12.27
2022-10-05T03:50:06.047Z,11.56
2022-10-05T03:53:14.924Z,10.99
2022-10-05T03:56:23.994Z,10.52
2022-10-05T03:59:32.373Z,10.39
2022-10-05T04:02:40.139Z,11.67
2022-10-05T04:05:45.957Z,12.88
2022-10-05T04:08:52.192Z,13.63
2022-10-05T04:12:02.006Z,14.13
2022-10-05T04:15:17.993Z,14.48
2022-10-05T04:18:25.198Z,14.78
2022-10-05T04:21:29.921Z,15.02
2022-10-05T04:24:36.398Z,15.23
2022-10-05T04:27:41.785Z,15.39
2022-10-05T04:30:46.156Z,15.49
2022-10-05T04:33:54.960Z,15.56
2022-10-05T04:37:02.458Z,15.66
2022-10-05T04:40:15.077Z,15.74
2022-10-05T04:43:20.238Z,15.75
2022-10-05T04:46:29.497Z,15.78
2022-10-05T04:49:41.380Z,15.79
2022-10-05T04:52:51.682Z,15.80
2022-10-05T04:55:58.098Z,15.79
2022-10-05T04:59:16.836Z,15.80
2022-10-05T05:02:23.637Z,15.86
2022-10-05T05:05:31.927Z,15.86
2022-10-05T05:08:41.898Z,15.89
2022-10-05T05:11:52.110Z,15.87
2022-10-05T05:15:06.914Z,14.99
2022-10-05T05:18:34.284Z,13.48
2022-10-05T05:21:42.965Z,12.42
2022-10-05T05:24:52.879Z,13.08
2022-10-05T05:27:57.758Z,13.95
2022-10-05T05:31:06.196Z,14.59
2022-10-05T05:34:17.611Z,15.03
2022-10-05T05:37:25.824Z,15.24
2022-10-05T05:40:32.513Z,15.45
2022-10-05T05:43:42.803Z,15.65
2022-10-05T05:47:03.383Z,15.70
2022-10-05T05:50:19.845Z,15.87
2022-10-05T05:53:24.980Z,16.02
2022-10-05T05:56:32.298Z,16.29
2022-10-05T05:59:40.041Z,16.30
2022-10-05T06:02:45.730Z,15.16
2022-10-05T06:05:51.618Z,14.00
2022-10-05T06:08:56.660Z,13.21
2022-10-05T06:12:28.860Z,13.42
2022-10-05T06:15:34.508Z,14.55
2022-10-05T06:18:39.462Z,15.36
2022-10-05T06:21:44.439Z,15.82
2022-10-05T06:24:51.601Z,16.17
2022-10-05T06:28:08.930Z,16.40
2022-10-05T06:31:19.713Z,16.73
2022-10-05T06:34:34.869Z,16.65
2022-10-05T06:37:46.434Z,15.45
2022-10-05T06:40:57.385Z,14.45
2022-10-05T06:44:02.137Z,14.41
2022-10-05T06:47:22.264Z,15.53
2022-10-05T06:50:52.740Z,16.20
2022-10-05T06:54:27.438Z,16.69
2022-10-05T06:57:40.985Z,17.06
2022-10-05T07:00:49.216Z,16.74
2022-10-05T07:03:59.308Z,16.05
2022-10-05T07:07:03.092Z,16.90
2022-10-05T07:10:16.685Z,17.46
2022-10-05T07:13:37.771Z,17.81
2022-10-05T07:16:52.590Z,17.00
2022-10-05T07:20:00.400Z,16.43
2022-10-05T07:23:19.457Z,17.02
2022-10-05T07:26:27.462Z,17.63
2022-10-05T07:29:34.159Z,17.94
2022-10-05T07:32:39.422Z,17.44
2022-10-05T07:36:06.729Z,16.44
2022-10-05T07:39:13.916Z,16.88
2022-10-05T07:42:22.392Z,17.71
2022-10-05T07:45:28.277Z,18.09
2022-10-05T07:48:37.060Z,17.29
2022-10-05T07:51:41.358Z,16.31
2022-10-05T07:54:53.490Z,16.19
2022-10-05T07:58:02.171Z,17.22
2022-10-05T08:01:11.484Z,17.97
2022-10-05T08:04:17.602Z,18.38
2022-10-05T08:07:20.230Z,17.78
2022-10-05T08:10:31.198Z,16.87
2022-10-05T08:13:39.069Z,16.56
2022-10-05T08:16:42.047Z,17.53
2022-10-05T08:19:47.356Z,18.24
2022-10-05T08:22:54.000Z,18.33
2022-10-05T08:26:12.564Z,17.50
2022-10-05T08:29:18.906Z,16.75
2022-10-05T08:32:24.052Z,16.69
2022-10-05T08:35:33.452Z,17.68
2022-10-05T08:38:36.135Z,17.90
2022-10-05T08:41:55.957Z,17.08
2022-10-05T08:45:20.941Z,16.45
2022-10-05T08:48:33.622Z,16.19
2022-10-05T08:51:53.380Z,17.18
2022-10-05T08:55:13.998Z,18.11
2022-10-05T08:58:34.743Z,17.72
2022-10-05T09:01:46.163Z,17.27
2022-10-05T09:04:58.745Z,17.05
2022-10-05T09:08:12.964Z,17.31
2022-10-05T09:11:21.209Z,18.40
2022-10-05T09:14:38.683Z,18.19
2022-10-05T09:17:51.145Z,17.79
2022-10-05T09:20:54.666Z,17.55
2022-10-05T09:24:07.952Z,17.45
2022-10-05T09:27:13.907Z,17.36
2022-10-05T09:30:20.099Z,17.22
2022-10-05T09:33:55.152Z,17.06
2022-10-05T09:37:17.206Z,16.89
2022-10-05T09:40:35.921Z,16.87
2022-10-05T09:43:55.119Z,17.61
2022-10-05T09:47:11.770Z,18.31
2022-10-05T09:50:27.668Z,18.01
2022-10-05T09:53:44.187Z,17.80
2022-10-05T09:57:03.443Z,17.71
2022-10-05T10:00:23.539Z,17.69
2022-10-05T10:03:42.506Z,17.74
2022-10-05T10:06:54.808Z,17.82
2022-10-05T10:10:12.897Z,17.85
2022-10-05T10:13:23.090Z,17.91
2022-10-05T10:16:32.272Z,17.97
2022-10-05T10:19:51.900Z,17.94
2022-10-05T10:23:10.400Z,17.98
2022-10-05T10:26:34.560Z,18.15
2022-10-05T10:29:47.834Z,18.57
2022-10-05T10:33:02.551Z,18.85
2022-10-05T10:36:12.975Z,19.08
2022-10-05T10:39:19.857Z,19.12
2022-10-05T10:42:33.434Z,19.19
2022-10-05T10:45:46.322Z,19.25
2022-10-05T10:48:57.249Z,19.32
2022-10-05T10:52:10.061Z,19.39
2022-10-05T10:55:22.714Z,19.39
2022-10-05T10:58:48.770Z,19.48
2022-10-05T11:02:06.084Z,19.64
2022-10-05T11:05:15.640Z,19.81
2022-10-05T11:08:37.318Z,19.96
2022-10-05T11:11:58.178Z,19.98
2022-10-05T11:15:06.423Z,20.09
2022-10-05T11:18:15.391Z,20.19
2022-10-05T11:21:24.996Z,20.32
2022-10-05T11:24:47.963Z,20.37
2022-10-05T11:27:59.279Z,20.41
2022-10-05T11:31:24.907Z,20.44
2022-10-05T11:34:43.193Z,20.32
2022-10-05T11:38:03.511Z,20.17
2022-10-05T11:41:17.569Z,20.23
2022-10-05T11:44:34.201Z,20.34
2022-10-05T11:47:41.079Z,20.31
2022-10-05T11:50:48.534Z,20.31
2022-10-05T11:53:57.118Z,20.38
2022-10-05T11:57:10.640Z,20.45
2022-10-05T12:00:15.999Z,20.51
2022-10-05T12:03:28.550Z,20.55
2022-10-05T12:06:38.278Z,20.61
2022-10-05T12:10:04.931Z,20.56
2022-10-05T12:13:18.672Z,20.55
2022-10-05T12:16:24.303Z,20.61
2022-10-05T12:19:31.398Z,20.73
2022-10-05T12:22:36.092Z,20.82
2022-10-05T12:25:41.324Z,20.91
2022-10-05T12:28:46.954Z,20.93
2022-10-05T12:31:55.488Z,20.97
2022-10-05T12:35:02.608Z,20.98
2022-10-05T12:38:11.368Z,20.99
2022-10-05T12:41:18.120Z,20.96
2022-10-05T12:44:25.867Z,20.94
2022-10-05T12:47:32.423Z,20.91
2022-10-05T12:50:36.102Z,20.89
2022-10-05T12:53:47.837Z,20.88
2022-10-05T12:56:53.293Z,20.86
2022-10-05T13:00:00.915Z,20.78
2022-10-05T13:03:08.844Z,20.68
2022-10-05T13:06:17.228Z,20.64
2022-10-05T13:09:23.673Z,20.66
2022-10-05T13:12:35.477Z,20.67
2022-10-05T13:15:43.882Z,20.71
2022-10-05T13:18:58.280Z,20.71
2022-10-05T13:22:04.876Z,20.67
2022-10-05T13:25:17.235Z,20.63
2022-10-05T13:28:21.875Z,20.69
2022-10-05T13:31:27.269Z,20.72
2022-10-05T13:34:34.579Z,20.76
2022-10-05T13:37:40.745Z,20.79
2022-10-05T13:40:45.857Z,20.79
2022-10-05T13:43:52.519Z,20.83
2022-10-05T13:47:00.501Z,20.86
2022-10-05T13:50:05.678Z,20.84
2022-10-05T13:53:12.362Z,20.78
2022-10-05T13:56:17.876Z,20.68
2022-10-05T13:59:24.993Z,20.60
2022-10-05T14:02:29.273Z,20.56
2022-10-05T14:05:32.037Z,20.53
2022-10-05T14:08:35.790Z,20.47
2022-10-05T14:11:47.909Z,20.43
2022-10-05T14:14:52.926Z,20.40
2022-10-05T14:17:56.176Z,20.38
2022-10-05T14:21:03.251Z,20.35
2022-10-05T14:24:32.033Z,20.34
2022-10-05T14:27:49.597Z,20.30
2022-10-05T14:30:59.200Z,20.28
2022-10-05T14:34:29.328Z,20.24
2022-10-05T14:37:42.739Z,20.20
2022-10-05T14:40:45.656Z,20.15
2022-10-05T14:43:52.873Z,20.12
2022-10-05T14:46:58.244Z,20.11
2022-10-05T14:50:13.383Z,20.11
2022-10-05T14:53:17.154Z,20.11
2022-10-05T14:56:28.274Z,20.09
2022-10-05T14:59:53.886Z,20.09
2022-10-05T15:03:08.621Z,20.09
2022-10-05T15:06:15.546Z,20.11
2022-10-05T15:09:32.023Z,20.21
2022-10-05T15:12:37.640Z,20.48
2022-10-05T15:15:44.248Z,20.79
2022-10-05T15:18:50.988Z,21.13
2022-10-05T15:22:00.371Z,21.49
2022-10-05T15:25:12.786Z,21.81
2022-10-05T15:28:20.778Z,21.97
2022-10-05T15:31:33.258Z,21.86
2022-10-05T15:34:39.862Z,21.59
2022-10-05T15:37:43.543Z,21.48
2022-10-05T15:40:49.086Z,21.38
2022-10-05T15:43:58.207Z,21.08
2022-10-05T15:47:03.636Z,20.72
2022-10-05T15:50:14.316Z,20.41
2022-10-05T15:53:20.742Z,20.08
2022-10-05T15:56:26.655Z,19.73
2022-10-05T15:59:35.012Z,19.41
2022-10-05T16:02:41.051Z,19.10
2022-10-05T16:06:06.137Z,18.77
2022-10-05T16:09:13.983Z,18.46
2022-10-05T16:12:22.006Z,18.20
2022-10-05T16:15:27.971Z,17.93
2022-10-05T16:18:40.404Z,17.68
2022-10-05T16:21:50.934Z,17.44
2022-10-05T16:25:01.810Z,17.23
2022-10-05T16:28:11.306Z,17.01
2022-10-05T16:31:22.909Z,16.79
2022-10-05T16:34:34.197Z,16.59
2022-10-05T16:37:41.536Z,16.39
2022-10-05T16:40:50.046Z,16.21
2022-10-05T16:43:57.681Z,16.02
2022-10-05T16:47:04.040Z,15.83
2022-10-05T16:50:16.820Z,15.67
2022-10-05T16:53:22.066Z,15.51
2022-10-05T16:56:27.554Z,15.37
2022-10-05T16:59:44.447Z,15.23
2022-10-05T17:02:54.259Z,15.08
2022-10-05T17:06:07.666Z,14.95
2022-10-05T17:09:22.921Z,14.82
2022-10-05T17:12:33.172Z,15.49
2022-10-05T17:15:41.116Z,16.90
2022-10-05T17:19:14.546Z,17.90
2022-10-05T17:22:23.697Z,18.54
2022-10-05T17:25:34.177Z,19.00
2022-10-05T17:28:39.158Z,19.36
2022-10-05T17:32:01.175Z,19.55
2022-10-05T17:35:18.520Z,19.06
2022-10-05T17:38:23.254Z,17.86
2022-10-05T17:41:27.604Z,17.01
2022-10-05T17:44:30.153Z,16.37
2022-10-05T17:47:49.711Z,15.86
2022-10-05T17:51:12.839Z,15.42
2022-10-05T17:54:37.982Z,15.02
2022-10-05T17:57:41.318Z,14.68
2022-10-05T18:01:13.527Z,14.40
2022-10-05T18:04:25.811Z,14.16
2022-10-05T18:07:28.666Z,14.10
2022-10-05T18:10:31.938Z,15.25
2022-10-05T18:13:40.932Z,16.47
2022-10-05T18:16:59.973Z,17.27
2022-10-05T18:20:12.620Z,17.78
2022-10-05T18:23:35.159Z,18.24
2022-10-05T18:26:42.952Z,18.63
2022-10-05T18:30:04.770Z,18.93
2022-10-05T18:33:20.401Z,18.85
2022-10-05T18:36:37.908Z,17.71
2022-10-05T18:39:45.496Z,16.54
2022-10-05T18:42:53.355Z,15.82
2022-10-05T18:46:03.534Z,15.23
2022-10-05T18:49:18.996Z,14.73
2022-10-05T18:52:26.902Z,14.30
2022-10-05T18:55:33.059Z,13.94
2022-10-05T18:58:41.358Z,13.63
2022-10-05T19:01:51.574Z,13.36
2022-10-05T19:05:04.618Z,13.13
2022-10-05T19:08:10.468Z,13.73
2022-10-05T19:11:17.708Z,15.18
2022-10-05T19:14:24.659Z,16.26
2022-10-05T19:17:31.838Z,16.92
2022-10-05T19:20:37.405Z,17.37
2022-10-05T19:23:51.219Z,17.66
2022-10-05T19:27:00.615Z,18.01
2022-10-05T19:30:11.477Z,18.01
2022-10-05T19:33:25.350Z,16.91
2022-10-05T19:36:40.536Z,15.83
2022-10-05T19:39:47.412Z,15.05
2022-10-05T19:42:59.477Z,14.46
2022-10-05T19:46:19.203Z,13.95
2022-10-05T19:49:42.452Z,13.53
2022-10-05T19:52:49.790Z,13.19
2022-10-05T19:55:54.788Z,13.74
2022-10-05T19:58:59.000Z,15.02
2022-10-05T20:02:03.596Z,15.92
2022-10-05T20:05:07.286Z,16.53
2022-10-05T20:08:14.693Z,16.99
2022-10-05T20:11:18.128Z,17.34
2022-10-05T20:14:28.252Z,17.56
2022-10-05T20:17:49.359Z,17.68
2022-10-05T20:20:52.015Z,16.70
2022-10-05T20:24:06.408Z,15.61
2022-10-05T20:27:28.901Z,14.78
2022-10-05T20:30:33.334Z,14.12
2022-10-05T20:33:35.958Z,13.62
2022-10-05T20:36:39.848Z,13.71
2022-10-05T20:39:42.488Z,14.93
2022-10-05T20:42:45.181Z,15.75
2022-10-05T20:45:47.786Z,16.35
2022-10-05T20:48:51.973Z,16.84
2022-10-05T20:51:55.249Z,17.22
2022-10-05T20:54:58.314Z,17.44
2022-10-05T20:58:00.675Z,17.66
2022-10-05T21:01:15.872Z,17.81
2022-10-05T21:04:19.538Z,17.94
2022-10-05T21:07:22.803Z,17.52
2022-10-05T21:10:25.489Z,16.26
2022-10-05T21:13:28.194Z,15.26
2022-10-05T21:16:30.985Z,14.50
2022-10-05T21:19:37.711Z,13.88
2022-10-05T21:22:40.460Z,13.43
2022-10-05T21:25:44.848Z,14.00
2022-10-05T21:28:47.318Z,15.13
2022-10-05T21:31:50.104Z,15.87
2022-10-05T21:34:52.609Z,16.39
2022-10-05T21:37:55.381Z,16.81
2022-10-05T21:40:57.985Z,17.17
2022-10-05T21:44:00.623Z,17.41
2022-10-05T21:47:03.691Z,17.60
2022-10-05T21:50:08.055Z,17.48
2022-10-05T21:53:13.180Z,16.23
2022-10-05T21:56:17.503Z,15.03
2022-10-05T21:59:21.457Z,14.15
2022-10-05T22:02:24.017Z,13.49
2022-10-05T22:05:26.696Z,12.96
2022-10-05T22:08:30.794Z,13.32
2022-10-05T22:11:33.730Z,14.49
2022-10-05T22:14:36.235Z,15.33
2022-10-05T22:17:39.856Z,15.82
2022-10-05T22:20:42.478Z,16.19
2022-10-05T22:23:45.812Z,16.48
2022-10-05T22:26:50.810Z,16.70
2022-10-05T22:29:54.033Z,16.94
2022-10-05T22:32:56.601Z,17.12
2022-10-05T22:35:59.936Z,17.22
2022-10-05T22:39:02.554Z,17.32
2022-10-05T22:42:05.472Z,17.43
2022-10-05T22:45:08.866Z,16.83
2022-10-05T22:48:11.554Z,15.49
2022-10-05T22:51:14.136Z,14.42
2022-10-05T22:54:16.745Z,13.61
2022-10-05T22:57:19.394Z,13.00
2022-10-05T23:00:27.582Z,12.49
2022-10-05T23:03:30.620Z,12.08
2022-10-05T23:06:33.265Z,12.68
2022-10-05T23:09:35.824Z,13.80
2022-10-05T23:12:38.382Z,14.61
2022-10-05T23:15:41.897Z,15.22
2022-10-05T23:18:46.241Z,15.70
2022-10-05T23:21:48.850Z,16.05
2022-10-05T23:24:51.656Z,16.31
2022-10-05T23:27:54.131Z,16.55
2022-10-05T23:31:00.475Z,16.76
2022-10-05T23:34:03.229Z,16.85
2022-10-05T23:37:08.870Z,17.01
2022-10-05T23:40:14.912Z,17.14
2022-10-05T23:43:17.769Z,17.07
2022-10-05T23:46:20.563Z,16.11
2022-10-05T23:49:23.357Z,14.94
2022-10-05T23:52:25.924Z,14.04
2022-10-05T23:55:28.396Z,13.37
2022-10-05T23:58:31.532Z,13.19
